Terminal Aerodrome Forecast
Issued by NWS

Home | Current Version | Previous Version | Text Only | Print | Product List | Glossary On
Versions: 1 2 3 4 5 6 7 8 9 10 11 12 13 14
000
FTUS43 KICT 270404 AAB
TAFSLN
TAF AMD
KSLN 270404Z 2704/2724 31012KT P6SM OVC008
      TEMPO 2704/2706 5SM -FZDZ BR SCT008 OVC015
     FM270600 33012KT P6SM OVC015
     FM271600 31010KT P6SM SCT025
     FM271900 30010KT P6SM SKC=

USA.gov is the U.S. government's official web portal to all federal, state and local government web resources and services.